Time;durP1;ratioP1;P1;durP2;ratioP2;P2;SDS_P1;SDS_P2;PMS_P1;PMS_P2;Temp;Humidity;BMP_temperature;BMP_pressure;BME280_temperature;BME280_humidity;BME280_pressure;Samples;Min_cycle;Max_cycle;Signal;HPM_P1;HPM_P2
2023/06/04 00:02:25;;;;;;;7.80;6.70;;;;;;;19.16;100.00;102699.47;5074142;28;20025;-74
2023/06/04 00:04:51;;;;;;;8.40;6.65;;;;;;;18.74;100.00;102619.50;5074518;28;20035;-73
2023/06/04 00:07:16;;;;;;;12.38;6.68;;;;;;;19.04;100.00;102679.94;5074022;28;20044;-74
2023/06/04 00:09:42;;;;;;;14.93;7.50;;;;;;;18.89;100.00;102706.88;5056491;28;20163;-73
2023/06/04 00:12:08;;;;;;;12.10;7.70;;;;;;;18.69;100.00;102672.88;5074214;28;20032;-74
2023/06/04 00:14:33;;;;;;;16.88;8.63;;;;;;;18.49;100.00;102684.41;5074754;28;20094;-73
2023/06/04 00:16:59;;;;;;;11.10;7.35;;;;;;;18.84;100.00;102739.63;5074051;28;20475;-73
2023/06/04 00:19:24;;;;;;;13.00;7.90;;;;;;;18.46;100.00;102689.63;5056260;28;20071;-73
2023/06/04 00:21:49;;;;;;;12.57;7.28;;;;;;;18.85;100.00;102758.53;5074083;28;20070;-72
2023/06/04 00:24:16;;;;;;;11.98;7.53;;;;;;;18.91;100.00;102761.88;5074090;28;20035;-73
2023/06/04 00:26:41;;;;;;;10.68;7.65;;;;;;;18.38;100.00;102700.00;5073090;28;20067;-74
2023/06/04 00:29:07;;;;;;;9.88;7.15;;;;;;;18.30;100.00;102691.56;5055969;28;20127;-74
2023/06/04 00:31:32;;;;;;;10.65;6.85;;;;;;;18.62;100.00;102733.13;5073375;28;20029;-73
2023/06/04 00:33:58;;;;;;;11.00;6.88;;;;;;;18.97;100.00;102786.69;5073714;28;20094;-77
2023/06/04 00:36:29;;;;;;;11.98;7.15;;;;;;;18.67;100.00;102744.22;5073924;28;20033;-72
2023/06/04 00:38:54;;;;;;;10.07;7.63;;;;;;;18.53;100.00;102735.88;5056205;28;20033;-72
2023/06/04 00:41:20;;;;;;;13.25;7.50;;;;;;;18.49;100.00;102735.94;5056222;28;20040;-73
2023/06/04 00:43:55;;;;;;;12.13;6.70;;;;;;;18.52;100.00;102739.31;5056154;28;20033;-73
2023/06/04 00:46:25;;;;;;;13.60;7.13;;;;;;;18.77;100.00;102794.75;5073466;28;20482;-73
2023/06/04 00:48:52;;;;;;;7.90;7.13;;;;;;;18.84;100.00;102798.06;5074341;28;20028;-73
2023/06/04 00:51:18;;;;;;;9.82;7.85;;;;;;;18.54;100.00;102736.75;5074228;28;20376;-72
2023/06/04 00:53:43;;;;;;;9.75;7.03;;;;;;;18.52;100.00;102749.63;5073907;28;20024;-73
2023/06/04 00:56:09;;;;;;;11.27;7.30;;;;;;;18.60;100.00;102754.69;5073765;28;20410;-73
2023/06/04 00:58:42;;;;;;;9.40;7.20;;;;;;;18.45;100.00;102737.72;5074148;28;20475;-74
2023/06/04 01:01:18;;;;;;;11.65;8.20;;;;;;;18.61;100.00;102767.53;5055622;28;20060;-72
2023/06/04 01:03:49;;;;;;;10.63;8.30;;;;;;;17.98;100.00;102691.22;5073165;28;20491;-73
2023/06/04 01:06:28;;;;;;;13.90;8.40;;;;;;;17.90;100.00;102688.75;5055786;28;20032;-74
2023/06/04 01:08:57;;;;;;;13.50;8.30;;;;;;;18.35;100.00;102751.59;5073711;28;20028;-72
2023/06/04 01:11:36;;;;;;;12.40;8.65;;;;;;;18.46;100.00;102790.13;5073396;28;20025;-74
2023/06/04 01:14:10;;;;;;;12.15;7.97;;;;;;;18.39;100.00;102750.66;5073225;28;20507;-73
2023/06/04 01:17:01;;;;;;;13.98;8.48;;;;;;;18.20;100.00;102733.81;5069937;28;20098;-72
2023/06/04 01:20:02;;;;;;;13.15;8.50;;;;;;;18.40;100.00;102756.69;5073045;28;20483;-73
2023/06/04 01:22:51;;;;;;;11.98;8.48;;;;;;;18.40;100.00;102778.13;5031348;28;20414;-73
2023/06/04 01:25:49;;;;;;;14.40;7.75;;;;;;;18.56;100.00;102753.84;5073263;28;20138;-72
2023/06/04 01:28:16;;;;;;;15.57;8.45;;;;;;;18.57;100.00;102771.03;5057758;28;20536;-72
2023/06/04 01:30:48;;;;;;;12.75;8.73;;;;;;;18.33;100.00;102744.75;5073315;28;20162;-72
2023/06/04 01:33:15;;;;;;;14.43;8.35;;;;;;;18.11;100.00;102728.78;5071726;28;20029;-72
2023/06/04 01:35:41;;;;;;;12.27;8.40;;;;;;;18.43;100.00;102770.41;5072294;28;20085;-71
2023/06/04 01:38:07;;;;;;;12.45;8.18;;;;;;;18.23;100.00;102738.91;5072586;28;20044;-73
2023/06/04 01:40:32;;;;;;;11.95;8.32;;;;;;;18.43;100.00;102752.34;5072878;28;20348;-72
2023/06/04 01:42:59;;;;;;;8.60;7.70;;;;;;;18.48;100.00;102773.75;5054741;28;20060;-72
2023/06/04 01:45:27;;;;;;;11.57;7.68;;;;;;;18.13;100.00;102729.59;5072561;28;20031;-72
2023/06/04 01:47:54;;;;;;;12.65;7.85;;;;;;;18.29;100.00;102722.50;5072568;28;20037;-72
2023/06/04 01:50:20;;;;;;;11.77;7.50;;;;;;;18.29;100.00;102759.41;5072881;28;20115;-72
2023/06/04 01:52:45;;;;;;;12.00;7.47;;;;;;;18.24;100.00;102721.72;5054031;28;20123;-73
2023/06/04 01:55:14;;;;;;;10.02;7.47;;;;;;;18.58;100.00;102775.28;5072414;28;20028;-73
2023/06/04 01:57:50;;;;;;;12.20;7.70;;;;;;;18.56;100.00;102759.00;5072523;28;20090;-72
2023/06/04 02:00:16;;;;;;;12.98;7.32;;;;;;;18.35;100.00;102715.53;5072646;28;20028;-72
2023/06/04 02:02:43;;;;;;;11.43;7.40;;;;;;;18.50;100.00;102733.34;5054214;28;20031;-72
2023/06/04 02:05:09;;;;;;;11.88;7.53;;;;;;;18.23;100.00;102709.69;5054224;28;20040;-72
2023/06/04 02:07:39;;;;;;;9.70;7.85;;;;;;;18.39;100.00;102763.56;5054015;28;20037;-73
2023/06/04 02:10:10;;;;;;;10.35;7.88;;;;;;;18.37;100.00;102736.97;5072874;28;20032;-72
2023/06/04 02:12:37;;;;;;;13.20;8.30;;;;;;;18.24;100.00;102704.56;5071964;28;20056;-74
2023/06/04 02:15:04;;;;;;;12.93;8.73;;;;;;;18.31;100.00;102719.03;5072472;28;20034;-72
2023/06/04 02:17:32;;;;;;;14.27;8.07;;;;;;;18.30;100.00;102730.22;5071140;28;20153;-72
2023/06/04 02:20:04;;;;;;;13.20;8.73;;;;;;;18.48;100.00;102739.41;5072298;28;20053;-72
2023/06/04 02:22:30;;;;;;;12.65;8.77;;;;;;;17.98;100.00;102674.06;5072009;28;20064;-73
2023/06/04 02:24:55;;;;;;;17.98;9.18;;;;;;;17.64;100.00;102625.66;5072156;28;20111;-72
2023/06/04 02:27:21;;;;;;;13.90;8.82;;;;;;;17.91;100.00;102648.41;5053255;28;20032;-73
2023/06/04 02:29:46;;;;;;;12.38;8.65;;;;;;;17.87;100.00;102613.28;5053531;28;20039;-72
2023/06/04 02:32:11;;;;;;;16.80;8.43;;;;;;;17.91;100.00;102631.22;5070856;28;20024;-73
2023/06/04 02:34:37;;;;;;;12.30;8.73;;;;;;;17.78;100.00;102585.13;5070932;28;20036;-76
2023/06/04 02:37:03;;;;;;;13.30;7.95;;;;;;;18.07;100.00;102622.41;5071409;28;20037;-75
2023/06/04 02:39:29;;;;;;;13.02;8.40;;;;;;;18.45;100.00;102657.84;5070036;28;20036;-73
2023/06/04 02:41:55;;;;;;;14.65;8.52;;;;;;;17.97;100.00;102607.97;5070751;28;20032;-72
2023/06/04 02:44:20;;;;;;;10.10;7.97;;;;;;;18.47;100.00;102640.63;5069377;28;20033;-72
2023/06/04 02:46:45;;;;;;;9.07;8.07;;;;;;;18.31;100.00;102597.94;5070869;28;20039;-72
2023/06/04 02:49:13;;;;;;;12.38;9.00;;;;;;;18.07;100.00;102580.34;5070501;28;20122;-73
2023/06/04 02:51:43;;;;;;;10.88;8.77;;;;;;;18.33;100.00;102601.34;5071384;28;20414;-72
2023/06/04 02:54:08;;;;;;;16.55;9.13;;;;;;;18.60;100.00;102615.50;5070817;28;20422;-77
2023/06/04 02:56:36;;;;;;;11.85;8.45;;;;;;;18.24;100.00;102595.50;5071500;28;20028;-73
2023/06/04 02:59:01;;;;;;;12.18;8.93;;;;;;;17.79;100.00;102495.00;5071161;28;20055;-72
2023/06/04 03:01:27;;;;;;;11.07;8.50;;;;;;;18.53;100.00;102568.38;5071279;28;20028;-73
2023/06/04 03:03:54;;;;;;;11.68;8.98;;;;;;;18.24;100.00;102508.78;5070396;28;20032;-72
2023/06/04 03:06:21;;;;;;;11.70;8.65;;;;;;;18.38;100.00;102532.53;5070816;28;20064;-72
2023/06/04 03:08:48;;;;;;;11.30;8.90;;;;;;;18.06;100.00;102473.06;5070284;28;20060;-73
2023/06/04 03:11:14;;;;;;;11.52;9.07;;;;;;;18.46;100.00;102528.13;5070612;28;20103;-72
2023/06/04 03:13:39;;;;;;;11.85;9.10;;;;;;;18.23;100.00;102450.41;5054912;28;20136;-72
2023/06/04 03:16:09;;;;;;;14.80;9.48;;;;;;;18.58;100.00;102476.34;5033351;28;20029;-73
2023/06/04 03:18:40;;;;;;;13.57;9.45;;;;;;;18.36;100.00;102431.25;5032825;28;20029;-71
2023/06/04 03:21:06;;;;;;;17.98;9.32;;;;;;;18.55;100.00;102484.13;5050785;28;20029;-71
2023/06/04 03:23:32;;;;;;;10.82;9.50;;;;;;;18.33;100.00;102399.53;5032339;28;20052;-71
2023/06/04 03:25:58;;;;;;;9.93;8.85;;;;;;;18.68;100.00;102454.63;5032661;28;20040;-72
2023/06/04 03:28:23;;;;;;;14.82;9.45;;;;;;;18.40;100.00;102393.41;5050839;28;20400;-72
2023/06/04 03:30:49;;;;;;;20.63;10.10;;;;;;;18.28;100.00;102363.59;5050613;28;20036;-72
2023/06/04 03:33:15;;;;;;;15.13;9.30;;;;;;;18.15;100.00;102324.38;5051040;28;20499;-72
2023/06/04 03:35:41;;;;;;;13.38;9.68;;;;;;;18.84;100.00;102394.13;5050722;28;20059;-71
2023/06/04 03:38:07;;;;;;;13.13;10.18;;;;;;;18.57;100.00;102370.72;5033133;28;20529;-72
2023/06/04 03:40:33;;;;;;;11.60;9.05;;;;;;;18.65;100.00;102374.81;5050086;28;20056;-69
2023/06/04 03:42:58;;;;;;;14.77;9.48;;;;;;;18.19;100.00;102314.84;5032014;28;20120;-71
2023/06/04 03:45:23;;;;;;;12.80;8.88;;;;;;;18.26;100.00;102325.88;5050549;28;20040;-71
2023/06/04 03:47:49;;;;;;;15.20;9.95;;;;;;;18.30;100.00;102301.75;5055678;28;20024;-72
2023/06/04 03:50:15;;;;;;;19.10;10.27;;;;;;;18.29;100.00;102275.13;5052794;28;20413;-72
2023/06/04 03:52:40;;;;;;;16.00;10.07;;;;;;;18.64;100.00;102318.16;5070837;28;20115;-71
2023/06/04 03:55:06;;;;;;;16.77;9.95;;;;;;;18.78;100.00;102347.00;5069671;28;20028;-72
2023/06/04 03:57:32;;;;;;;13.70;10.27;;;;;;;18.63;100.00;102295.84;5070514;28;20514;-72
2023/06/04 03:59:58;;;;;;;13.80;9.82;;;;;;;18.86;100.00;102339.94;5070443;28;20475;-72
2023/06/04 04:02:23;;;;;;;18.88;9.75;;;;;;;18.98;100.00;102331.91;5070073;28;20028;-71
2023/06/04 04:04:49;;;;;;;17.05;10.00;;;;;;;18.96;100.00;102344.84;5070381;28;20539;-72
2023/06/04 04:07:15;;;;;;;15.38;9.95;;;;;;;18.57;100.00;102257.31;5052389;28;20043;-74
2023/06/04 04:09:41;;;;;;;13.38;9.15;;;;;;;18.74;100.00;102279.22;5052432;28;20459;-71
2023/06/04 04:12:06;;;;;;;13.77;10.02;;;;;;;18.94;100.00;102315.66;5070210;28;20063;-72
2023/06/04 04:14:32;;;;;;;14.02;11.02;;;;;;;18.93;100.00;102310.56;5070812;28;20193;-72
2023/06/04 04:16:57;;;;;;;17.95;12.50;;;;;;;19.05;100.00;102336.88;5051983;28;20028;-71
2023/06/04 04:19:22;;;;;;;20.35;10.52;;;;;;;18.78;100.00;102308.34;5070197;28;20027;-71
2023/06/04 04:21:48;;;;;;;19.95;11.00;;;;;;;18.88;100.00;102333.00;5070945;28;20075;-72
2023/06/04 04:24:24;;;;;;;12.43;10.20;;;;;;;19.03;100.00;102299.13;5068369;28;20063;-72
2023/06/04 04:26:52;;;;;;;15.48;10.40;;;;;;;19.13;100.00;102294.56;5073476;28;20036;-72
2023/06/04 04:29:22;;;;;;;18.63;10.38;;;;;;;19.12;100.00;102300.59;5056097;28;20050;-72
2023/06/04 04:31:49;;;;;;;14.43;10.18;;;;;;;19.13;100.00;102299.72;5055666;28;20036;-72
2023/06/04 04:34:14;;;;;;;13.30;10.18;;;;;;;18.83;100.00;102255.81;5073985;28;20028;-72
2023/06/04 04:36:40;;;;;;;14.80;10.70;;;;;;;18.83;100.00;102257.53;5073347;28;20391;-72
2023/06/04 04:39:07;;;;;;;15.85;10.10;;;;;;;19.18;100.00;102295.28;5055352;28;20025;-71
2023/06/04 04:41:32;;;;;;;15.30;11.18;;;;;;;19.02;100.00;102297.41;5073392;28;20035;-71
2023/06/04 04:44:04;;;;;;;22.20;11.50;;;;;;;18.98;100.00;102281.19;5055160;28;20032;-70
2023/06/04 04:46:29;;;;;;;15.13;11.00;;;;;;;18.98;100.00;102283.75;5055359;28;20067;-71
2023/06/04 04:48:55;;;;;;;14.05;11.20;;;;;;;18.87;100.00;102238.53;5072878;28;20068;-71
2023/06/04 04:51:21;;;;;;;19.00;12.32;;;;;;;18.74;100.00;102219.94;5073372;28;20135;-72
2023/06/04 04:53:47;;;;;;;15.20;11.43;;;;;;;18.77;100.00;102219.03;5073370;28;20538;-73
2023/06/04 04:56:13;;;;;;;16.75;11.90;;;;;;;18.77;100.00;102253.38;5055566;28;20124;-71
2023/06/04 04:58:38;;;;;;;24.30;13.50;;;;;;;18.79;100.00;102210.38;5054965;28;20025;-71
2023/06/04 05:01:03;;;;;;;18.55;12.70;;;;;;;18.84;100.00;102247.16;5056649;28;20040;-71
2023/06/04 05:03:29;;;;;;;13.93;12.45;;;;;;;19.08;100.00;102256.00;5052769;28;20115;-70
2023/06/04 05:05:54;;;;;;;16.25;12.18;;;;;;;18.72;100.00;102195.94;5053052;28;20032;-71
2023/06/04 05:08:20;;;;;;;18.38;12.98;;;;;;;18.78;100.00;102234.44;5052363;28;20152;-70
2023/06/04 05:10:45;;;;;;;16.70;12.25;;;;;;;18.75;100.00;102200.16;5052594;28;20086;-70
2023/06/04 05:13:11;;;;;;;13.90;11.82;;;;;;;18.83;100.00;102201.66;5052541;28;20033;-71
2023/06/04 05:15:36;;;;;;;13.40;11.82;;;;;;;18.66;100.00;102211.56;5034814;28;20116;-71
2023/06/04 05:18:03;;;;;;;18.15;12.18;;;;;;;18.31;100.00;102143.72;5034551;28;20048;-71
2023/06/04 05:20:29;;;;;;;17.40;11.82;;;;;;;18.50;100.00;102138.09;5052867;28;20045;-71
2023/06/04 05:22:55;;;;;;;14.88;11.68;;;;;;;18.13;100.00;102071.19;5052911;28;20538;-71
2023/06/04 05:25:21;;;;;;;18.38;11.93;;;;;;;18.01;100.00;102039.75;5034804;28;20041;-71
2023/06/04 05:27:50;;;;;;;18.67;13.18;;;;;;;18.17;100.00;102008.44;5052175;28;20033;-71
2023/06/04 05:30:16;;;;;;;21.15;13.55;;;;;;;18.20;100.00;101943.13;5052976;28;20048;-71
2023/06/04 05:32:41;;;;;;;18.02;13.82;;;;;;;18.40;100.00;101935.66;5051989;28;20029;-72
2023/06/04 05:35:08;;;;;;;19.08;12.68;;;;;;;18.24;100.00;101803.09;5052559;28;20549;-72
2023/06/04 05:37:37;;;;;;;18.00;14.13;;;;;;;18.60;100.00;101809.69;5071807;28;20435;-72
2023/06/04 05:40:05;;;;;;;18.50;13.40;;;;;;;18.25;100.00;101701.75;5072499;28;20058;-71
2023/06/04 05:42:30;;;;;;;16.33;13.02;;;;;;;18.49;100.00;101659.78;5054699;28;20060;-71
2023/06/04 05:44:56;;;;;;;16.85;13.68;;;;;;;18.07;100.00;101541.00;5072226;28;20063;-71
2023/06/04 05:47:22;;;;;;;13.95;12.43;;;;;;;18.50;100.00;101542.13;5071712;28;20032;-74
2023/06/04 05:49:47;;;;;;;16.08;13.35;;;;;;;18.56;100.00;101509.25;5072186;28;20020;-71
2023/06/04 05:52:13;;;;;;;15.00;13.20;;;;;;;18.52;100.00;101481.91;5072414;28;20040;-71
2023/06/04 05:54:38;;;;;;;18.73;13.32;;;;;;;18.14;100.00;101426.59;5071588;28;20091;-72
2023/06/04 05:57:05;;;;;;;16.75;12.95;;;;;;;18.34;100.00;101466.25;5071018;28;20068;-72
2023/06/04 05:59:31;;;;;;;18.13;15.20;;;;;;;18.02;100.00;101400.47;5072184;28;20025;-72
2023/06/04 06:01:57;;;;;;;17.17;14.70;;;;;;;18.46;100.00;101428.03;5072100;28;20029;-72
2023/06/04 06:04:23;;;;;;;16.45;13.55;;;;;;;18.53;100.00;101408.03;5072289;28;20033;-73
2023/06/04 06:06:49;;;;;;;15.05;13.52;;;;;;;18.71;100.00;101412.50;5071488;28;20036;-73
2023/06/04 06:09:16;;;;;;;16.55;13.25;;;;;;;18.43;100.00;101391.25;5053661;28;20028;-72
2023/06/04 06:11:41;;;;;;;13.73;12.43;;;;;;;18.61;100.00;101413.75;5067371;28;20055;-72
2023/06/04 06:14:10;;;;;;;14.80;13.30;;;;;;;18.79;100.00;101429.34;5051924;28;20480;-72
2023/06/04 06:16:36;;;;;;;18.25;13.30;;;;;;;18.38;100.00;101388.81;5052142;28;20029;-73
2023/06/04 06:19:02;;;;;;;20.08;14.50;;;;;;;18.65;100.00;101398.13;5052239;28;20056;-73
2023/06/04 06:21:27;;;;;;;18.75;14.13;;;;;;;18.45;100.00;101404.91;5051296;28;20208;-73
2023/06/04 06:23:54;;;;;;;19.48;13.93;;;;;;;18.46;100.00;101469.25;5051412;28;20056;-73
2023/06/04 06:26:20;;;;;;;20.88;14.25;;;;;;;18.51;100.00;101494.84;5051024;28;20051;-73
2023/06/04 06:28:45;;;;;;;16.02;13.38;;;;;;;18.55;100.00;101457.78;5051558;28;20128;-73
2023/06/04 06:31:10;;;;;;;15.48;13.15;;;;;;;18.62;100.00;101488.41;5050964;28;20415;-72
2023/06/04 06:33:40;;;;;;;18.38;15.27;;;;;;;18.62;100.00;101495.31;5050646;28;20037;-72
2023/06/04 06:36:07;;;;;;;17.42;15.63;;;;;;;18.93;100.00;101558.56;5033219;28;20025;-73
2023/06/04 06:38:32;;;;;;;18.75;14.25;;;;;;;18.71;100.00;101557.66;5033079;28;20033;-73
2023/06/04 06:40:58;;;;;;;15.80;14.23;;;;;;;18.69;100.00;101571.50;5051259;28;20039;-72
2023/06/04 06:43:27;;;;;;;19.23;14.52;;;;;;;18.74;100.00;101578.16;5033506;28;20063;-73
2023/06/04 06:45:52;;;;;;;17.30;14.65;;;;;;;18.66;100.00;101546.66;5032770;28;20103;-73
2023/06/04 06:48:18;;;;;;;16.30;13.13;;;;;;;19.16;100.00;101672.88;5060546;28;20498;-73
2023/06/04 06:50:43;;;;;;;13.65;12.25;;;;;;;19.04;100.00;101677.59;5053358;28;20445;-72
2023/06/04 06:53:08;;;;;;;18.75;13.75;;;;;;;18.71;100.00;101623.81;5052846;28;20067;-73
2023/06/04 06:55:34;;;;;;;16.15;14.32;;;;;;;19.00;100.00;101631.34;5066824;28;20033;-73
2023/06/04 06:57:59;;;;;;;18.67;13.90;;;;;;;19.07;100.00;101697.28;5063118;28;20029;-73
2023/06/04 07:00:27;;;;;;;15.52;14.02;;;;;;;18.53;100.00;101607.25;5070708;28;20039;-74
2023/06/04 07:02:52;;;;;;;13.48;12.00;;;;;;;18.76;100.00;101655.41;5053368;28;20115;-73
2023/06/04 07:05:18;;;;;;;20.05;12.60;;;;;;;18.88;100.00;101720.28;5069967;28;20115;-74
2023/06/04 07:07:43;;;;;;;18.30;12.27;;;;;;;18.93;100.00;101664.25;5070617;28;20040;-73
2023/06/04 07:10:09;;;;;;;13.88;12.38;;;;;;;19.50;100.00;101706.91;5071030;28;20483;-71
2023/06/04 07:12:35;;;;;;;14.38;12.88;;;;;;;19.45;100.00;101655.47;5071469;28;20082;-74
2023/06/04 07:15:00;;;;;;;14.63;11.57;;;;;;;19.75;100.00;101671.53;5053485;28;20029;-73
2023/06/04 07:17:26;;;;;;;12.65;11.35;;;;;;;19.19;100.00;101634.97;5071346;28;20422;-74
2023/06/04 07:19:51;;;;;;;12.15;11.00;;;;;;;19.44;100.00;101668.44;5071054;28;20025;-73
2023/06/04 07:22:16;;;;;;;13.25;10.52;;;;;;;19.43;100.00;101724.34;5071092;28;20404;-74
2023/06/04 07:24:42;;;;;;;12.43;10.60;;;;;;;19.43;100.00;101705.47;5053248;28;20448;-74
2023/06/04 07:27:15;;;;;;;12.55;10.30;;;;;;;18.86;100.00;101634.44;5071010;28;20036;-73
2023/06/04 07:29:43;;;;;;;12.52;10.93;;;;;;;19.69;100.00;101705.31;5070860;28;20028;-72
2023/06/04 07:32:08;;;;;;;12.70;11.48;;;;;;;19.14;100.00;101605.91;5052548;28;20043;-72
2023/06/04 07:34:34;;;;;;;11.90;10.80;;;;;;;19.67;100.00;101677.00;5069672;28;20029;-73
2023/06/04 07:37:00;;;;;;;13.70;10.60;;;;;;;19.48;100.00;101670.84;5051917;28;20466;-73
2023/06/04 07:39:25;;;;;;;12.80;10.45;;;;;;;19.80;100.00;101696.28;5070901;28;20056;-73
2023/06/04 07:41:50;;;;;;;11.23;10.13;;;;;;;19.83;100.00;101708.22;5070369;28;20092;-73
2023/06/04 07:44:16;;;;;;;12.55;10.73;;;;;;;19.86;100.00;101641.00;5051160;28;20037;-73
2023/06/04 07:46:41;;;;;;;11.45;10.35;;;;;;;20.28;100.00;101690.94;5050566;28;20438;-71
2023/06/04 07:49:08;;;;;;;12.18;10.98;;;;;;;20.28;100.00;101700.47;5032667;28;20068;-73
2023/06/04 07:51:34;;;;;;;11.75;10.55;;;;;;;19.66;100.00;101705.44;5039840;28;20051;-72
2023/06/04 07:54:00;;;;;;;10.88;9.88;;;;;;;19.99;100.00;101724.81;5070365;28;20034;-73
2023/06/04 07:56:25;;;;;;;13.38;10.88;;;;;;;20.00;100.00;101739.44;5072359;28;20028;-72
2023/06/04 07:58:51;;;;;;;10.88;9.88;;;;;;;20.01;100.00;101722.16;5074098;28;20020;-73
2023/06/04 08:01:16;;;;;;;11.65;10.50;;;;;;;20.22;100.00;101745.47;5073908;28;20043;-72
2023/06/04 08:03:41;;;;;;;11.73;10.55;;;;;;;19.89;100.00;101738.97;5056185;28;20025;-72
2023/06/04 08:06:07;;;;;;;13.85;10.82;;;;;;;19.99;100.00;101723.97;5055831;28;20029;-72
2023/06/04 08:08:33;;;;;;;11.82;10.60;;;;;;;19.96;100.00;101700.84;5073256;28;20032;-73
2023/06/04 08:10:59;;;;;;;13.18;10.80;;;;;;;20.02;100.00;101708.38;5056117;28;20059;-74
2023/06/04 08:13:25;;;;;;;13.88;10.30;;;;;;;20.62;100.00;101753.28;5055473;28;20625;-73
2023/06/04 08:15:50;;;;;;;11.57;10.38;;;;;;;20.31;100.00;101732.19;5073735;28;20024;-73
2023/06/04 08:18:16;;;;;;;12.02;10.23;;;;;;;19.95;100.00;101715.50;5055829;28;20123;-73
2023/06/04 08:20:45;;;;;;;12.10;10.85;;;;;;;20.25;100.00;101729.00;5073908;28;20556;-72
2023/06/04 08:23:11;;;;;;;16.13;11.32;;;;;;;21.15;100.00;101768.34;5071147;28;20053;-73
2023/06/04 08:25:36;;;;;;;12.48;9.88;;;;;;;21.30;100.00;101767.69;5054360;28;20410;-73
2023/06/04 08:28:03;;;;;;;11.23;9.45;;;;;;;21.59;100.00;101751.69;5069511;28;20033;-73
2023/06/04 08:30:29;;;;;;;15.70;9.80;;;;;;;20.91;100.00;101818.50;5072901;28;20040;-73
2023/06/04 08:32:54;;;;;;;10.50;9.30;;;;;;;21.49;100.00;101836.69;5065585;28;20056;-73
2023/06/04 08:35:20;;;;;;;12.23;8.80;;;;;;;21.37;100.00;101849.34;5034917;28;20071;-73
2023/06/04 08:37:46;;;;;;;10.93;8.70;;;;;;;21.02;100.00;101884.44;5052440;28;20052;-73
2023/06/04 08:40:12;;;;;;;10.85;8.85;;;;;;;21.44;100.00;101894.75;5051804;28;20033;-73
2023/06/04 08:42:41;;;;;;;14.27;9.32;;;;;;;21.20;100.00;101875.06;5052462;28;20420;-73
2023/06/04 08:45:12;;;;;;;13.98;9.25;;;;;;;21.06;100.00;101887.72;5051852;28;20048;-73
2023/06/04 08:47:42;;;;;;;17.10;10.63;;;;;;;21.28;100.00;101929.94;5052146;28;20177;-73
2023/06/04 08:50:10;;;;;;;15.50;11.20;;;;;;;21.00;100.00;101952.63;5060354;28;20036;-73
2023/06/04 08:52:37;;;;;;;17.70;11.68;;;;;;;21.29;100.00;101935.06;5054505;28;20037;-72
2023/06/04 08:55:03;;;;;;;14.00;11.07;;;;;;;21.18;100.00;101939.00;5055045;28;20166;-73
2023/06/04 08:57:30;;;;;;;14.15;9.45;;;;;;;21.64;100.00;102011.28;5072934;28;20434;-73
2023/06/04 08:59:56;;;;;;;13.52;8.45;;;;;;;21.21;100.00;102022.53;5072286;28;20111;-72
2023/06/04 09:02:22;;;;;;;13.13;8.13;;;;;;;21.28;100.00;101999.81;5072413;28;20265;-71
2023/06/04 09:04:49;;;;;;;11.27;7.15;;;;;;;21.68;100.00;102059.47;5055354;28;20087;-73
2023/06/04 09:07:16;;;;;;;11.57;7.40;;;;;;;21.57;100.00;102031.41;5071865;28;20043;-73
2023/06/04 09:09:45;;;;;;;9.35;7.30;;;;;;;22.13;100.00;102082.66;5055420;28;20482;-73
2023/06/04 09:12:25;;;;;;;11.02;7.35;;;;;;;22.32;100.00;102106.91;5054724;28;20044;-73
2023/06/04 09:14:50;;;;;;;9.93;6.90;;;;;;;22.34;100.00;102082.59;5072732;28;20517;-73
2023/06/04 09:17:23;;;;;;;11.45;7.10;;;;;;;22.84;100.00;102128.88;5072918;28;20032;-74
2023/06/04 09:19:50;;;;;;;11.32;6.47;;;;;;;23.36;100.00;102133.41;5055089;28;20166;-74
2023/06/04 09:22:15;;;;;;;10.88;6.90;;;;;;;22.24;100.00;102130.53;5072431;28;20101;-74
2023/06/04 09:24:46;;;;;;;12.55;7.70;;;;;;;23.02;100.00;102149.66;5072780;28;20028;-73
2023/06/04 09:27:18;;;;;;;8.13;6.53;;;;;;;22.33;100.00;102132.78;5072510;28;20043;-72
2023/06/04 09:30:00;;;;;;;7.20;5.82;;;;;;;22.47;100.00;102088.09;5054346;28;20020;-74
2023/06/04 09:32:27;;;;;;;8.05;5.65;;;;;;;23.11;100.00;102135.41;5072516;28;20483;-74
2023/06/04 09:34:54;;;;;;;9.60;5.40;;;;;;;22.37;100.00;102064.31;5072467;28;20056;-73
2023/06/04 09:37:21;;;;;;;9.27;5.70;;;;;;;23.27;100.00;102160.59;5054346;28;20032;-74
2023/06/04 09:39:56;;;;;;;10.50;6.30;;;;;;;22.67;100.00;102106.25;5071710;28;20044;-73
2023/06/04 09:42:22;;;;;;;9.15;6.20;;;;;;;22.95;100.00;102142.22;5072363;28;20518;-70
2023/06/04 09:44:48;;;;;;;7.25;6.13;;;;;;;23.08;100.00;102135.53;5071903;28;20115;-72
2023/06/04 09:47:15;;;;;;;9.60;5.97;;;;;;;22.92;100.00;102109.44;5072141;28;20166;-72
2023/06/04 09:49:45;;;;;;;9.95;7.20;;;;;;;23.41;100.00;102161.78;5071612;28;20116;-72
2023/06/04 09:52:12;;;;;;;8.60;6.63;;;;;;;23.25;100.00;102110.50;5071795;28;20546;-72
2023/06/04 09:54:39;;;;;;;10.40;6.40;;;;;;;23.38;100.00;102141.13;5071346;28;20480;-72
2023/06/04 09:57:23;;;;;;;12.82;6.25;;;;;;;23.05;100.00;102101.94;5053160;28;20479;-72
2023/06/04 09:59:50;;;;;;;10.88;6.13;;;;;;;23.32;100.00;102089.47;5071039;28;20032;-74
2023/06/04 10:02:22;;;;;;;9.50;6.53;;;;;;;23.61;100.00;102120.94;5071545;28;20033;-71
2023/06/04 10:04:57;;;;;;;10.98;6.30;;;;;;;22.77;100.00;102111.88;5071204;28;20067;-75
2023/06/04 10:07:26;;;;;;;15.38;6.55;;;;;;;23.15;100.00;102064.28;5071071;28;20024;-71
2023/06/04 10:09:55;;;;;;;9.73;6.30;;;;;;;22.63;100.00;102051.97;5071057;28;20032;-71
2023/06/04 10:12:28;;;;;;;11.43;6.60;;;;;;;22.52;100.00;102038.63;5053494;28;20032;-71
2023/06/04 10:15:04;;;;;;;7.65;6.07;;;;;;;23.01;100.00;102071.84;5053164;28;20097;-72
2023/06/04 10:17:30;;;;;;;7.13;6.25;;;;;;;22.86;100.00;102046.59;5070665;28;20123;-73
2023/06/04 10:19:57;;;;;;;7.88;6.20;;;;;;;23.05;100.00;102066.47;5071234;28;20028;-72
2023/06/04 10:22:23;;;;;;;8.85;6.22;;;;;;;23.18;100.00;102035.56;5070719;28;20063;-71
2023/06/04 10:24:49;;;;;;;14.90;6.55;;;;;;;23.05;100.00;102065.63;5053350;28;20531;-72
2023/06/04 10:27:17;;;;;;;8.13;5.95;;;;;;;23.07;100.00;102011.88;5053116;28;20088;-72
2023/06/04 10:29:43;;;;;;;10.57;6.28;;;;;;;23.05;100.00;102009.38;5070850;28;20020;-71
2023/06/04 10:32:08;;;;;;;8.30;6.10;;;;;;;22.85;100.00;102050.13;5052773;28;20512;-73
2023/06/04 10:34:35;;;;;;;7.65;6.28;;;;;;;22.81;100.00;102028.66;5071329;28;20559;-72
2023/06/04 10:37:02;;;;;;;11.75;6.40;;;;;;;23.52;100.00;102035.66;5071332;28;20407;-73
2023/06/04 10:39:32;;;;;;;10.98;6.35;;;;;;;22.83;100.00;101987.91;5052848;28;20483;-73
2023/06/04 10:42:06;;;;;;;9.35;6.35;;;;;;;23.63;100.00;101988.38;5053122;28;20028;-72
2023/06/04 10:44:45;;;;;;;7.90;6.38;;;;;;;23.38;100.00;101980.94;5070761;28;20521;-73
2023/06/04 10:47:30;;;;;;;7.07;6.35;;;;;;;23.78;100.00;102022.25;5071075;28;20047;-69
2023/06/04 10:50:07;;;;;;;8.82;6.30;;;;;;;23.70;100.00;102001.00;5071549;28;20479;-73
2023/06/04 10:52:33;;;;;;;8.90;5.80;;;;;;;23.50;100.00;101985.56;5053146;28;20039;-73
2023/06/04 10:55:08;;;;;;;7.70;6.18;;;;;;;23.55;100.00;102017.31;5071118;28;20092;-73
2023/06/04 10:57:34;;;;;;;7.82;6.32;;;;;;;23.35;100.00;101986.31;4713876;28;9999812;-75
2023/06/04 11:00:01;;;;;;;9.13;6.25;;;;;;;23.60;100.00;101918.38;5089373;28;20032;-73
2023/06/04 11:02:27;;;;;;;8.05;5.95;;;;;;;23.86;100.00;101912.69;5071289;28;20039;-73
2023/06/04 11:05:06;;;;;;;8.23;5.80;;;;;;;24.04;100.00;101972.41;5088479;28;20028;-72
2023/06/04 11:07:47;;;;;;;10.15;6.47;;;;;;;23.68;100.00;101953.47;5089060;28;20030;-74
2023/06/04 11:10:14;;;;;;;11.55;6.65;;;;;;;24.62;100.00;101977.13;5089886;28;20067;-73